Time;durP1;ratioP1;P1;durP2;ratioP2;P2;SDS_P1;SDS_P2;PMS_P1;PMS_P2;Temp;Humidity;BMP_temperature;BMP_pressure;BME280_temperature;BME280_humidity;BME280_pressure;Samples;Min_cycle;Max_cycle;Signal;HPM_P1;HPM_P2
2022/04/22 00:00:16;;;;;;;56.27;27.13;;;;;;;7.28;100.00;100327.28;4947665;28;20190;-70
2022/04/22 00:02:43;;;;;;;46.13;26.53;;;;;;;7.28;100.00;100328.16;4947477;28;20214;-70
2022/04/22 00:05:09;;;;;;;47.07;26.60;;;;;;;7.27;100.00;100325.59;4952175;28;20218;-70
2022/04/22 00:07:36;;;;;;;49.13;26.53;;;;;;;7.26;100.00;100327.31;4947354;28;20235;-70
2022/04/22 00:10:04;;;;;;;56.67;27.50;;;;;;;7.28;100.00;100324.69;4945985;28;20237;-71
2022/04/22 00:12:31;;;;;;;51.03;27.40;;;;;;;7.29;100.00;100322.06;4946974;28;20220;-70
2022/04/22 00:14:59;;;;;;;47.33;26.03;;;;;;;7.29;100.00;100323.81;4946347;28;20214;-71
2022/04/22 00:17:25;;;;;;;48.40;25.50;;;;;;;7.28;100.00;100322.97;4945780;29;20616;-70
2022/04/22 00:19:51;;;;;;;41.53;25.60;;;;;;;7.28;100.00;100317.78;4948050;28;20206;-70
2022/04/22 00:22:18;;;;;;;46.97;26.40;;;;;;;7.29;100.00;100319.50;4947586;28;20210;-71
2022/04/22 00:24:45;;;;;;;51.47;27.00;;;;;;;7.30;100.00;100322.94;4947052;28;20211;-70
2022/04/22 00:27:11;;;;;;;44.00;25.17;;;;;;;7.29;100.00;100309.13;4946493;28;20222;-71
2022/04/22 00:29:37;;;;;;;43.60;26.40;;;;;;;7.29;100.00;100314.31;4947831;28;20306;-71
2022/04/22 00:32:07;;;;;;;42.80;24.33;;;;;;;7.30;100.00;100309.97;4946164;28;20217;-71
2022/04/22 00:34:34;;;;;;;45.00;25.73;;;;;;;7.30;100.00;100308.25;4948879;28;20223;-70
2022/04/22 00:37:00;;;;;;;47.03;27.27;;;;;;;7.31;100.00;100307.34;4941959;28;20223;-71
2022/04/22 00:39:27;;;;;;;44.70;26.97;;;;;;;7.33;100.00;100305.56;4944379;28;20230;-71
2022/04/22 00:41:53;;;;;;;45.50;26.57;;;;;;;7.33;100.00;100302.97;4947507;28;20195;-70
2022/04/22 00:44:19;;;;;;;39.80;24.90;;;;;;;7.31;100.00;100296.97;4947725;28;20238;-71
2022/04/22 00:46:46;;;;;;;37.07;22.97;;;;;;;7.31;100.00;100296.13;4950439;28;20226;-71
2022/04/22 00:49:13;;;;;;;37.13;22.57;;;;;;;7.31;100.00;100298.72;4948807;28;20647;-70
2022/04/22 00:51:40;;;;;;;40.70;23.30;;;;;;;7.30;100.00;100291.81;4943437;28;20609;-70
2022/04/22 00:54:07;;;;;;;37.67;22.13;;;;;;;7.29;100.00;100288.38;4946739;29;20210;-70
2022/04/22 00:56:34;;;;;;;39.47;23.17;;;;;;;7.30;100.00;100291.81;4947561;28;20226;-71
2022/04/22 00:59:02;;;;;;;39.20;22.20;;;;;;;7.29;100.00;100290.13;4950449;28;20207;-70
2022/04/22 01:01:29;;;;;;;41.80;24.43;;;;;;;7.29;100.00;100282.34;4950293;28;20573;-70
2022/04/22 01:12:12;;;;;;;44.37;25.17;;;;;;;7.28;100.00;100272.84;4951425;28;20209;-71
2022/04/22 01:14:39;;;;;;;45.57;24.30;;;;;;;7.29;100.00;100277.16;4949396;28;20191;-71
2022/04/22 01:17:06;;;;;;;42.47;24.40;;;;;;;7.29;100.00;100270.22;4951023;28;20265;-70
2022/04/22 01:19:33;;;;;;;39.60;23.57;;;;;;;7.29;100.00;100274.56;4950979;28;20199;-70
2022/04/22 01:22:01;;;;;;;43.43;25.60;;;;;;;7.28;100.00;100268.53;4950958;28;20210;-70
2022/04/22 01:24:27;;;;;;;40.57;22.93;;;;;;;7.27;100.00;100260.78;4950954;28;20203;-70
2022/04/22 01:26:55;;;;;;;40.80;24.00;;;;;;;7.26;100.00;100259.88;4950991;28;20226;-70
2022/04/22 01:29:22;;;;;;;36.03;23.03;;;;;;;7.27;100.00;100255.56;4950628;28;20229;-70
2022/04/22 01:31:49;;;;;;;43.83;24.87;;;;;;;7.26;100.00;100259.88;4950444;28;20207;-70
2022/04/22 01:34:15;;;;;;;39.97;23.63;;;;;;;7.27;100.00;100265.94;4950249;28;20721;-70
2022/04/22 01:36:42;;;;;;;38.23;23.03;;;;;;;7.26;100.00;100267.66;4944890;28;20726;-70
2022/04/22 01:42:23;;;;;;;35.50;21.27;;;;;;;7.26;100.00;100265.06;4954474;28;20326;-71
2022/04/22 01:45:12;;;;;;;39.87;23.07;;;;;;;7.26;100.00;100259.88;4948210;28;20206;-71
2022/04/22 01:48:03;;;;;;;41.80;24.77;;;;;;;7.27;100.00;100256.44;4946829;29;20747;-71
2022/04/22 01:50:53;;;;;;;41.57;26.83;;;;;;;7.27;100.00;100248.66;4952788;28;20218;-71
2022/04/22 01:53:51;;;;;;;43.83;24.73;;;;;;;7.28;100.00;100255.56;4952383;28;20217;-71
2022/04/22 01:56:32;;;;;;;40.00;24.07;;;;;;;7.28;100.00;100244.31;4944228;28;20629;-70
2022/04/22 01:59:12;;;;;;;36.87;23.10;;;;;;;7.27;100.00;100240.03;4947915;28;20721;-70
2022/04/22 02:01:48;;;;;;;39.13;24.13;;;;;;;7.27;100.00;100247.81;4946001;28;20207;-71
2022/04/22 02:04:27;;;;;;;37.87;24.53;;;;;;;7.27;100.00;100247.81;4948482;28;20333;-71
2022/04/22 02:07:14;;;;;;;41.83;23.93;;;;;;;7.26;100.00;100244.31;4944752;28;20241;-71
2022/04/22 02:09:55;;;;;;;42.73;24.10;;;;;;;7.25;100.00;100245.22;4949081;29;20230;-71
2022/04/22 02:12:28;;;;;;;40.33;24.33;;;;;;;7.25;100.00;100239.19;4949373;28;20270;-71
2022/04/22 02:15:02;;;;;;;42.00;24.10;;;;;;;7.24;100.00;100247.84;4948015;28;20197;-71
2022/04/22 02:17:28;;;;;;;42.33;24.33;;;;;;;7.23;100.00;100247.00;4948728;28;20226;-71
2022/04/22 02:19:55;;;;;;;46.67;23.13;;;;;;;7.25;100.00;100245.22;4948165;29;20336;-71
2022/04/22 02:22:22;;;;;;;47.23;25.20;;;;;;;7.26;100.00;100251.25;4948421;28;20210;-71
2022/04/22 02:24:48;;;;;;;47.03;25.67;;;;;;;7.25;100.00;100240.03;4949642;28;20210;-71
2022/04/22 02:30:00;;;;;;;42.23;24.70;;;;;;;7.24;100.00;100235.72;4949866;28;20246;-71
2022/04/22 02:32:27;;;;;;;45.20;25.40;;;;;;;7.24;100.00;100235.72;4953037;28;20217;-71
2022/04/22 02:34:53;;;;;;;41.57;24.60;;;;;;;7.24;100.00;100225.34;4948616;28;20202;-71
2022/04/22 02:37:19;;;;;;;36.30;21.90;;;;;;;7.24;100.00;100222.75;4951588;28;20249;-71
2022/04/22 02:39:46;;;;;;;40.43;24.27;;;;;;;7.23;100.00;100226.25;4950066;28;20294;-71
2022/04/22 02:45:27;;;;;;;37.03;23.57;;;;;;;7.22;100.00;100228.88;4945194;29;20215;-71
2022/04/22 02:47:56;;;;;;;36.93;23.67;;;;;;;7.21;100.00;100230.59;4948907;28;20231;-72
2022/04/22 02:50:22;;;;;;;43.73;25.33;;;;;;;7.22;100.00;100231.47;4946981;29;20226;-71
2022/04/22 02:52:49;;;;;;;38.67;23.27;;;;;;;7.22;100.00;100221.09;4948399;28;20737;-72
2022/04/22 02:55:15;;;;;;;39.63;23.90;;;;;;;7.21;100.00;100222.81;4943130;28;20258;-71
2022/04/22 02:57:43;;;;;;;37.73;22.63;;;;;;;7.20;100.00;100224.56;4946974;29;20278;-71
2022/04/22 03:00:11;;;;;;;35.73;21.63;;;;;;;7.20;100.00;100221.97;4942558;28;20206;-71
2022/04/22 03:02:38;;;;;;;38.10;24.03;;;;;;;7.20;100.00;100221.97;4941930;28;20283;-71
2022/04/22 03:05:07;;;;;;;36.73;22.80;;;;;;;7.20;100.00;100215.94;4948654;28;20562;-71
2022/04/22 03:07:33;;;;;;;37.57;23.07;;;;;;;7.19;100.00;100214.22;4946064;28;20768;-71
2022/04/22 03:10:00;;;;;;;37.03;23.17;;;;;;;7.20;100.00;100213.34;4949346;28;20743;-71
2022/04/22 03:12:26;;;;;;;37.20;23.10;;;;;;;7.19;100.00;100207.31;4948792;28;20214;-71
2022/04/22 03:14:53;;;;;;;33.23;21.60;;;;;;;7.18;100.00;100197.81;4949254;28;20535;-71
2022/04/22 03:17:20;;;;;;;36.90;22.43;;;;;;;7.17;100.00;100197.84;4948900;28;20223;-71
2022/04/22 03:19:46;;;;;;;35.83;23.87;;;;;;;7.14;100.00;100190.97;4949199;28;20817;-71
2022/04/22 03:22:14;;;;;;;40.77;24.13;;;;;;;7.12;100.00;100199.66;4947533;29;20203;-71
2022/04/22 03:24:40;;;;;;;46.00;25.27;;;;;;;7.11;100.00;100195.38;4947443;28;20203;-71
2022/04/22 03:27:07;;;;;;;38.47;21.20;;;;;;;7.11;100.00;100197.97;4948711;28;20250;-71
2022/04/22 03:29:35;;;;;;;36.77;22.37;;;;;;;7.07;100.00;100181.63;4948135;28;20238;-71
2022/04/22 03:32:01;;;;;;;40.10;23.83;;;;;;;7.04;100.00;100176.47;4949106;28;20220;-71
2022/04/22 03:34:28;;;;;;;32.57;22.87;;;;;;;7.01;100.00;100172.19;4949144;28;20298;-71
2022/04/22 03:36:55;;;;;;;33.00;21.43;;;;;;;6.99;100.00;100186.91;4951275;28;20218;-71
2022/04/22 03:39:22;;;;;;;35.83;23.03;;;;;;;6.99;100.00;100193.84;4944039;28;20202;-71
2022/04/22 03:41:48;;;;;;;39.23;23.60;;;;;;;6.97;100.00;100187.84;4943596;28;20202;-71
2022/04/22 03:44:15;;;;;;;42.47;25.13;;;;;;;6.98;100.00;100193.00;4950916;28;20281;-71
2022/04/22 03:46:42;;;;;;;44.27;25.90;;;;;;;6.98;100.00;100195.59;4953520;28;20230;-71
2022/04/22 03:49:09;;;;;;;41.63;25.23;;;;;;;6.98;100.00;100189.53;4951562;28;20229;-71
2022/04/22 03:51:36;;;;;;;45.63;26.57;;;;;;;6.96;100.00;100186.97;4947651;28;20234;-71
2022/04/22 03:54:02;;;;;;;36.37;22.77;;;;;;;6.96;100.00;100191.31;4948593;28;20237;-71
2022/04/22 03:59:14;;;;;;;41.23;26.13;;;;;;;6.92;100.00;100192.25;4941081;29;20209;-71
2022/04/22 04:01:40;;;;;;;39.70;25.57;;;;;;;6.92;100.00;100187.06;4945949;28;20256;-71
2022/04/22 04:04:07;;;;;;;38.27;24.90;;;;;;;6.93;100.00;100186.16;4947038;28;20218;-71
2022/04/22 04:06:35;;;;;;;39.13;24.60;;;;;;;6.92;100.00;100187.91;4946777;28;20223;-71
2022/04/22 04:17:17;;;;;;;46.67;26.60;;;;;;;6.93;100.00;100173.22;4945384;28;20242;-71
2022/04/22 04:25:11;;;;;;;52.43;29.50;;;;;;;6.97;100.00;100165.38;4949283;29;20217;-71
2022/04/22 04:27:39;;;;;;;52.37;29.40;;;;;;;6.96;100.00;100174.00;4952007;28;20214;-71
2022/04/22 04:30:07;;;;;;;47.50;27.37;;;;;;;6.96;100.00;100165.38;4951527;28;20215;-71
2022/04/22 04:32:34;;;;;;;44.57;26.50;;;;;;;6.97;100.00;100180.06;4951017;28;20234;-71
2022/04/22 04:35:00;;;;;;;51.77;29.47;;;;;;;6.96;100.00;100174.00;4951501;28;20720;-71
2022/04/22 04:37:27;;;;;;;43.90;26.80;;;;;;;7.00;100.00;100172.22;4950282;28;20226;-71
2022/04/22 04:39:55;;;;;;;48.77;27.13;;;;;;;7.00;100.00;100170.50;4944042;28;20196;-71
2022/04/22 04:42:21;;;;;;;53.97;29.27;;;;;;;7.05;100.00;100167.81;4946741;29;20610;-71
2022/04/22 04:44:50;;;;;;;59.97;29.57;;;;;;;7.05;100.00;100156.59;4951296;28;20689;-71
2022/04/22 04:47:17;;;;;;;52.97;30.67;;;;;;;7.08;100.00;100165.16;4950148;28;20237;-71
2022/04/22 04:49:45;;;;;;;53.80;28.50;;;;;;;7.11;100.00;100170.28;4951352;28;20225;-71
2022/04/22 04:52:12;;;;;;;59.20;30.77;;;;;;;7.13;100.00;100171.13;4946608;28;20552;-71
2022/04/22 04:54:38;;;;;;;61.57;31.83;;;;;;;7.17;100.00;100169.31;4946739;29;20214;-71
2022/04/22 04:57:06;;;;;;;59.03;30.93;;;;;;;7.19;100.00;100167.53;4951784;28;20250;-71
2022/04/22 04:59:32;;;;;;;63.33;34.17;;;;;;;7.23;100.00;100165.75;4945027;28;20203;-71
2022/04/22 05:02:00;;;;;;;59.73;32.33;;;;;;;7.26;100.00;100173.47;4948494;28;20680;-71
2022/04/22 05:04:26;;;;;;;62.37;33.77;;;;;;;7.28;100.00;100166.50;4949719;28;21483;-71
2022/04/22 05:06:53;;;;;;;66.33;34.63;;;;;;;7.33;100.00;100172.47;4951289;28;20223;-71
2022/04/22 05:09:19;;;;;;;59.80;35.07;;;;;;;7.35;100.00;100166.38;4951319;28;20659;-71
2022/04/22 05:11:45;;;;;;;66.83;35.77;;;;;;;7.37;100.00;100168.94;4951235;28;20313;-71
2022/04/22 05:14:13;;;;;;;66.80;37.13;;;;;;;7.42;100.00;100169.66;4949521;29;20526;-71
2022/04/22 05:16:39;;;;;;;66.67;36.17;;;;;;;7.45;100.00;100164.44;4949184;28;20223;-71
2022/04/22 05:19:07;;;;;;;74.33;40.30;;;;;;;7.49;100.00;100168.69;4951496;28;20211;-71
2022/04/22 05:21:33;;;;;;;72.93;40.07;;;;;;;7.53;100.00;100177.25;4947141;28;20700;-71
2022/04/22 05:24:00;;;;;;;71.00;37.50;;;;;;;7.55;100.00;100170.28;4948472;28;20213;-71
2022/04/22 05:26:26;;;;;;;69.50;37.50;;;;;;;7.59;100.00;100167.59;4951079;28;20226;-71
2022/04/22 05:28:52;;;;;;;72.37;39.20;;;;;;;7.64;100.00;100170.09;4947277;28;20203;-71
2022/04/22 05:34:19;;;;;;;75.00;39.50;;;;;;;7.75;100.00;100169.84;4982800;28;20252;-71
2022/04/22 05:36:53;;;;;;;66.83;39.67;;;;;;;7.75;100.00;100172.44;4998104;28;20221;-71
2022/04/22 05:39:23;;;;;;;65.70;36.50;;;;;;;7.73;100.00;100169.88;4991242;28;20561;-71
2022/04/22 05:41:58;;;;;;;60.27;35.67;;;;;;;7.71;100.00;100174.25;4985123;28;20196;-71
2022/04/22 05:44:35;;;;;;;60.80;35.13;;;;;;;7.72;100.00;100159.53;4991301;28;20872;-71
2022/04/22 05:47:24;;;;;;;59.07;35.20;;;;;;;7.73;100.00;100162.09;4983919;28;20242;-71
2022/04/22 05:50:09;;;;;;;59.27;34.07;;;;;;;7.73;100.00;100163.84;4987490;28;20217;-71
2022/04/22 05:55:47;;;;;;;56.63;34.93;;;;;;;7.76;100.00;100150.81;4996602;28;20216;-71
2022/04/22 05:58:25;;;;;;;57.63;35.47;;;;;;;7.76;100.00;100154.25;4989231;28;20285;-71
2022/04/22 06:00:59;;;;;;;55.33;34.27;;;;;;;7.79;100.00;100163.69;4989154;28;20198;-71
2022/04/22 06:03:33;;;;;;;53.90;35.17;;;;;;;7.83;100.00;100164.50;4987496;28;20213;-71
2022/04/22 06:06:08;;;;;;;55.40;34.73;;;;;;;7.85;100.00;100161.00;4992818;28;20219;-71
2022/04/22 06:11:45;;;;;;;56.77;35.40;;;;;;;7.88;100.00;100162.66;4993921;28;20230;-71
2022/04/22 06:14:15;;;;;;;57.70;34.63;;;;;;;7.93;100.00;100164.28;4982443;28;20618;-71
2022/04/22 06:16:48;;;;;;;61.77;37.07;;;;;;;7.95;100.00;100159.91;4977452;28;20236;-71
2022/04/22 06:19:22;;;;;;;58.60;39.10;;;;;;;8.03;100.00;100159.72;4972699;28;20237;-71
2022/04/22 06:21:55;;;;;;;60.27;37.73;;;;;;;8.12;100.00;100158.66;4986361;28;20260;-71
2022/04/22 06:24:30;;;;;;;60.80;37.97;;;;;;;8.18;100.00;100157.63;4985413;28;20264;-71
2022/04/22 06:27:05;;;;;;;63.50;37.97;;;;;;;8.26;100.00;100155.72;4986214;28;20257;-71
2022/04/22 06:29:37;;;;;;;63.13;37.13;;;;;;;8.33;100.00;100154.69;4987603;28;20250;-71
2022/04/22 06:32:04;;;;;;;60.27;37.27;;;;;;;8.34;100.00;100159.84;4987293;28;20215;-70
2022/04/22 06:34:31;;;;;;;59.77;37.50;;;;;;;8.38;100.00;100158.03;4986534;28;20206;-74
2022/04/22 06:36:59;;;;;;;56.17;35.83;;;;;;;8.43;100.00;100155.34;4987956;28;20310;-70
2022/04/22 06:45:46;;;;;;;52.47;36.27;;;;;;;8.43;100.00;100161.41;4985295;28;20207;-70
2022/04/22 06:47:42;;;;;;;49.83;34.60;;;;;;;8.56;100.00;100148.09;4982864;28;20213;-71
2022/04/22 06:50:10;;;;;;;54.13;35.30;;;;;;;8.58;100.00;100146.31;4986700;28;20206;-72
2022/04/22 06:52:39;;;;;;;53.93;36.17;;;;;;;8.61;100.00;100144.47;4983927;28;20263;-72
2022/04/22 06:55:06;;;;;;;50.37;34.80;;;;;;;8.63;100.00;100147.06;4992827;28;20200;-71
2022/04/22 06:57:32;;;;;;;43.17;32.50;;;;;;;8.60;100.00;100142.78;4991100;28;20276;-70
2022/04/22 06:59:59;;;;;;;42.77;31.43;;;;;;;8.62;100.00;100138.41;4986427;28;20283;-71
2022/04/22 07:02:26;;;;;;;45.87;32.33;;;;;;;8.58;100.00;100141.97;4989224;28;20257;-71
2022/04/22 07:04:54;;;;;;;43.20;30.87;;;;;;;8.58;100.00;100141.97;4991490;28;20411;-70
2022/04/22 07:07:21;;;;;;;44.73;31.97;;;;;;;8.60;100.00;100137.59;4987822;28;20228;-71
2022/04/22 07:09:49;;;;;;;44.03;31.87;;;;;;;8.72;100.00;100144.19;4983186;28;20216;-70
2022/04/22 07:12:18;;;;;;;46.07;31.80;;;;;;;8.77;100.00;100144.09;4992422;28;20220;-72
2022/04/22 07:14:46;;;;;;;45.23;31.37;;;;;;;8.81;100.00;100154.38;4992512;28;20208;-70
2022/04/22 07:17:13;;;;;;;43.43;31.50;;;;;;;8.87;100.00;100162.00;4994330;28;20272;-74
2022/04/22 07:19:41;;;;;;;41.60;30.37;;;;;;;8.95;100.00;100166.16;4998003;28;20205;-72
2022/04/22 07:22:08;;;;;;;41.90;28.93;;;;;;;8.94;100.00;100161.84;4988289;28;20561;-72
2022/04/22 07:24:35;;;;;;;39.27;29.10;;;;;;;9.05;100.00;100159.81;4991208;28;20216;-71
2022/04/22 07:27:04;;;;;;;42.53;29.10;;;;;;;9.07;100.00;100161.47;4987799;28;20227;-73
2022/04/22 07:29:34;;;;;;;43.77;29.73;;;;;;;9.14;100.00;100159.53;4984508;28;20224;-71
2022/04/22 07:32:01;;;;;;;41.50;28.67;;;;;;;9.22;100.00;100157.59;4985249;28;20320;-72
2022/04/22 07:34:27;;;;;;;38.40;27.37;;;;;;;9.18;100.00;100153.38;4989957;28;20197;-71
2022/04/22 07:36:54;;;;;;;37.97;27.00;;;;;;;9.26;100.00;100161.81;4986266;28;20254;-70
2022/04/22 07:39:20;;;;;;;41.83;27.57;;;;;;;9.42;100.00;100163.97;4989396;28;20598;-73
2022/04/22 07:41:48;;;;;;;35.77;27.43;;;;;;;9.42;100.00;100161.38;4986814;28;20612;-71
2022/04/22 07:47:08;;;;;;;38.60;26.80;;;;;;;9.58;100.00;100162.63;4985307;28;20225;-71
2022/04/22 07:49:34;;;;;;;35.93;25.10;;;;;;;9.72;100.00;100162.22;4983319;28;20205;-72
2022/04/22 07:52:01;;;;;;;35.67;25.20;;;;;;;9.79;100.00;100165.50;4981434;28;20237;-74
2022/04/22 07:54:28;;;;;;;36.13;25.80;;;;;;;9.83;100.00;100177.53;4985671;28;20205;-74
2022/04/22 07:56:56;;;;;;;32.87;24.60;;;;;;;9.82;100.00;100168.03;4980808;28;20218;-71
2022/04/22 07:59:25;;;;;;;33.80;24.97;;;;;;;9.90;100.00;100170.38;4986576;28;20213;-70
2022/04/22 08:01:51;;;;;;;33.67;24.73;;;;;;;9.94;100.00;100172.00;4986151;28;20228;-72
2022/04/22 08:04:18;;;;;;;35.17;25.93;;;;;;;9.87;100.00;100173.94;4983159;28;20251;-74
2022/04/22 08:06:44;;;;;;;32.83;24.67;;;;;;;9.93;100.00;100170.28;4986337;28;20434;-71
2022/04/22 08:09:11;;;;;;;34.60;24.40;;;;;;;9.99;100.00;100177.91;4986666;28;20220;-70
2022/04/22 08:11:37;;;;;;;34.97;25.73;;;;;;;9.97;100.00;100175.38;4989082;28;20216;-72
2022/04/22 08:14:04;;;;;;;33.50;24.90;;;;;;;9.92;100.00;100173.78;4986662;28;20207;-71
2022/04/22 08:16:32;;;;;;;32.80;24.40;;;;;;;9.86;100.00;100170.47;4985538;28;20902;-72
2022/04/22 08:18:58;;;;;;;35.40;24.80;;;;;;;10.00;100.00;100175.25;4982405;28;20676;-71
2022/04/22 08:21:24;;;;;;;34.57;25.40;;;;;;;10.01;100.00;100169.16;4984677;28;20191;-70
2022/04/22 08:23:51;;;;;;;33.97;24.63;;;;;;;10.05;100.00;100165.56;4990010;28;20442;-73
2022/04/22 08:26:31;;;;;;;35.57;24.53;;;;;;;10.12;100.00;100162.78;4983421;28;20252;-71
2022/04/22 08:29:11;;;;;;;31.33;23.27;;;;;;;10.23;100.00;100160.66;4982561;28;20199;-72
2022/04/22 08:31:43;;;;;;;34.90;24.50;;;;;;;10.36;100.00;100161.13;4986418;28;20230;-72
2022/04/22 08:34:29;;;;;;;35.63;24.43;;;;;;;10.46;100.00;100167.75;4985757;28;20285;-73
2022/04/22 08:37:01;;;;;;;35.33;24.80;;;;;;;10.61;100.00;100163.81;4986480;28;20313;-71
2022/04/22 08:39:32;;;;;;;31.57;23.60;;;;;;;10.74;100.00;100165.06;4986183;28;20210;-71
2022/04/22 08:42:06;;;;;;;30.03;21.70;;;;;;;10.73;100.00;100168.59;4990268;28;20417;-70
2022/04/22 08:44:41;;;;;;;32.07;22.97;;;;;;;10.80;100.00;100172.72;4985917;28;20207;-71
2022/04/22 08:50:17;;;;;;;30.00;22.37;;;;;;;11.05;100.00;100160.56;4978753;28;20222;-71
2022/04/22 08:52:53;;;;;;;33.20;23.57;;;;;;;11.15;100.00;100169.75;4985235;28;20233;-71
2022/04/22 08:55:46;;;;;;;31.07;23.07;;;;;;;11.23;100.00;100159.91;4981302;28;20235;-70
2022/04/22 08:58:36;;;;;;;25.53;20.53;;;;;;;11.36;100.00;100165.50;4982517;28;20216;-71
2022/04/22 09:01:27;;;;;;;34.03;23.33;;;;;;;11.49;100.00;100161.56;4978058;28;20191;-70
2022/04/22 09:03:59;;;;;;;25.43;19.97;;;;;;;11.49;100.00;100166.78;4984630;28;20203;-70
2022/04/22 09:06:32;;;;;;;24.27;19.50;;;;;;;11.53;100.00;100164.91;4985434;28;20720;-71
2022/04/22 09:09:12;;;;;;;25.93;19.50;;;;;;;11.55;100.00;100173.53;4986047;28;20645;-70
2022/04/22 09:11:52;;;;;;;24.03;18.80;;;;;;;11.76;100.00;100171.88;4990886;28;20236;-70
2022/04/22 09:15:01;;;;;;;22.60;17.50;;;;;;;11.72;100.00;100171.13;4991225;28;20203;-70
2022/04/22 09:17:46;;;;;;;23.33;18.67;;;;;;;11.97;100.00;100174.59;4921496;28;20238;-70
2022/04/22 09:20:36;;;;;;;19.43;15.87;;;;;;;12.04;99.24;100184.75;4988483;28;20190;-71
2022/04/22 09:26:39;;;;;;;21.47;17.17;;;;;;;12.24;100.00;100173.50;4987361;28;20227;-71
2022/04/22 09:29:31;;;;;;;23.30;17.83;;;;;;;12.34;98.07;100173.13;4988369;28;20201;-71
2022/04/22 09:32:12;;;;;;;22.30;18.13;;;;;;;12.12;97.60;100166.16;4990994;28;20225;-71
2022/04/22 09:34:50;;;;;;;21.63;17.30;;;;;;;12.26;98.29;100161.22;4990706;28;20284;-71
2022/04/22 09:43:30;;;;;;;22.80;17.80;;;;;;;12.04;99.81;100155.16;4990318;28;20192;-71
2022/04/22 09:45:59;;;;;;;19.33;17.13;;;;;;;12.09;97.08;100166.28;4991509;28;20305;-72
2022/04/22 09:48:45;;;;;;;20.50;17.00;;;;;;;12.16;100.00;100159.06;4972381;28;20213;-72
2022/04/22 09:51:48;;;;;;;19.73;16.37;;;;;;;12.12;98.89;100160.94;4988465;28;20205;-73
2022/04/22 09:54:23;;;;;;;18.83;15.53;;;;;;;12.07;99.09;100155.03;4981558;28;20696;-72
2022/04/22 09:57:09;;;;;;;18.80;15.80;;;;;;;11.98;97.65;100151.03;4989162;28;20305;-70
2022/04/22 09:59:53;;;;;;;21.27;17.00;;;;;;;11.88;99.78;100160.09;4987885;28;20248;-70
2022/04/22 10:02:27;;;;;;;21.23;16.03;;;;;;;11.83;98.82;100157.66;4988631;28;20197;-70
2022/04/22 10:05:21;;;;;;;21.30;15.77;;;;;;;11.76;99.28;100156.19;4987903;28;20200;-71
2022/04/22 10:08:06;;;;;;;22.03;16.90;;;;;;;11.68;98.00;100153.00;4991679;28;20666;-69
2022/04/22 10:10:42;;;;;;;20.00;16.07;;;;;;;11.82;100.00;100152.50;4989543;28;20204;-70
2022/04/22 10:14:03;;;;;;;19.50;16.07;;;;;;;11.83;97.59;100154.19;4984553;28;20210;-73
2022/04/22 10:16:39;;;;;;;22.10;17.00;;;;;;;11.81;98.04;100151.66;4986543;28;20263;-71
2022/04/22 10:19:24;;;;;;;23.77;16.03;;;;;;;11.74;98.26;100158.03;4983566;28;20486;-70
2022/04/22 10:21:58;;;;;;;27.97;19.30;;;;;;;11.61;100.00;100156.78;4988468;28;20282;-71
2022/04/22 10:24:32;;;;;;;25.83;20.70;;;;;;;11.42;100.00;100154.88;4984023;28;20213;-70
2022/04/22 10:27:21;;;;;;;30.23;22.03;;;;;;;11.28;100.00;100152.75;4986665;28;20221;-71
2022/04/22 10:29:57;;;;;;;31.67;22.73;;;;;;;11.24;100.00;100152.91;4988429;28;20217;-70
2022/04/22 10:32:33;;;;;;;31.73;23.23;;;;;;;11.10;100.00;100154.28;4985510;28;20297;-72
2022/04/22 10:35:20;;;;;;;30.63;22.33;;;;;;;10.97;100.00;100145.19;4990396;28;20986;-70
2022/04/22 10:37:54;;;;;;;32.03;22.83;;;;;;;10.86;100.00;100145.56;4986827;28;20339;-71
2022/04/22 10:40:30;;;;;;;33.77;23.90;;;;;;;10.84;100.00;100136.09;4986647;28;20193;-70
2022/04/22 10:43:14;;;;;;;32.07;23.60;;;;;;;10.85;100.00;100140.38;4989741;28;20287;-71
2022/04/22 10:48:46;;;;;;;38.43;22.57;;;;;;;11.09;100.00;100143.91;4988215;28;20196;-70
2022/04/22 10:51:18;;;;;;;27.57;21.63;;;;;;;11.08;100.00;100140.44;4992043;28;20218;-73
2022/04/22 10:53:49;;;;;;;29.50;21.60;;;;;;;11.06;100.00;100142.22;4983983;28;20210;-72
2022/04/22 10:56:38;;;;;;;24.20;19.40;;;;;;;11.01;100.00;100140.69;4989726;28;20225;-70
2022/04/22 10:59:35;;;;;;;24.23;19.50;;;;;;;10.90;100.00;100143.69;4983203;28;20204;-69
2022/04/22 11:02:34;;;;;;;24.20;19.63;;;;;;;10.95;100.00;100147.00;4972900;28;20635;-70
2022/04/22 11:05:41;;;;;;;27.33;20.87;;;;;;;10.90;100.00;100146.31;4989726;28;20229;-70
2022/04/22 11:08:26;;;;;;;28.97;21.20;;;;;;;10.84;100.00;100141.31;4944294;28;20227;-70
2022/04/22 11:11:08;;;;;;;28.17;21.47;;;;;;;10.93;100.00;100139.22;4983957;28;20249;-71
2022/04/22 11:13:39;;;;;;;27.97;21.30;;;;;;;11.02;100.00;100142.41;4981672;28;20718;-71
2022/04/22 11:16:08;;;;;;;28.33;21.40;;;;;;;11.00;100.00;100142.47;4988741;28;20306;-71
2022/04/22 11:18:36;;;;;;;27.30;22.27;;;;;;;11.03;100.00;100139.75;4982039;28;20313;-71
2022/04/22 11:21:04;;;;;;;28.10;20.83;;;;;;;10.95;100.00;100141.78;4978971;28;20214;-72
2022/04/22 11:23:36;;;;;;;27.77;20.63;;;;;;;11.05;100.00;100139.72;4988332;28;20212;-72
2022/04/22 11:26:03;;;;;;;29.80;20.97;;;;;;;11.08;100.00;100137.84;5003219;28;20685;-71
2022/04/22 11:28:34;;;;;;;32.73;22.27;;;;;;;11.18;100.00;100136.56;4987559;28;20212;-72
2022/04/22 11:31:04;;;;;;;27.60;21.17;;;;;;;11.14;100.00;100139.38;4989328;28;20219;-71
2022/04/22 11:33:44;;;;;;;29.33;21.03;;;;;;;11.25;100.00;100124.16;4991462;28;20220;-71
2022/04/22 11:36:10;;;;;;;29.03;22.03;;;;;;;11.28;100.00;100126.66;4982595;28;20235;-71
2022/04/22 11:38:45;;;;;;;28.57;22.33;;;;;;;11.41;100.00;100136.66;4987090;28;20199;-71
2022/04/22 11:41:12;;;;;;;29.60;21.67;;;;;;;11.60;100.00;100134.19;4985136;28;20608;-71
2022/04/22 11:43:39;;;;;;;26.77;21.27;;;;;;;11.82;100.00;100135.09;4987052;28;20187;-71
2022/04/22 11:46:05;;;;;;;26.63;20.47;;;;;;;11.91;99.15;100139.97;4981108;28;20304;-72
2022/04/22 11:48:33;;;;;;;29.10;21.13;;;;;;;11.90;98.76;100133.03;4984663;28;20210;-72
2022/04/22 11:51:00;;;;;;;28.00;20.80;;;;;;;12.02;98.04;100133.47;4989575;28;20248;-71
2022/04/22 11:53:32;;;;;;;23.17;18.43;;;;;;;12.03;94.03;100141.25;4991351;28;20244;-71
2022/04/22 11:55:59;;;;;;;27.83;19.80;;;;;;;12.07;94.50;100126.31;4989067;28;20219;-72
2022/04/22 11:58:27;;;;;;;25.30;19.53;;;;;;;11.99;95.27;100133.59;4970805;28;20212;-70
2022/04/22 12:06:25;;;;;;;25.97;19.83;;;;;;;12.11;94.60;100138.31;4986807;28;20221;-72
2022/04/22 12:08:53;;;;;;;23.87;18.50;;;;;;;12.20;93.58;100140.56;4985808;28;20197;-71
2022/04/22 12:11:19;;;;;;;27.77;18.20;;;;;;;12.29;93.24;100140.19;4985518;28;20201;-72
2022/04/22 12:13:47;;;;;;;23.90;17.70;;;;;;;12.17;90.28;100139.81;4994030;28;20205;-71
2022/04/22 12:16:18;;;;;;;23.90;17.83;;;;;;;12.20;89.88;100140.56;4982260;28;20237;-72
2022/04/22 12:18:48;;;;;;;23.53;18.60;;;;;;;12.17;89.86;100135.47;4989761;28;20280;-69
2022/04/22 12:21:14;;;;;;;20.73;16.93;;;;;;;12.25;88.53;100136.00;4987435;28;20206;-70
2022/04/22 12:23:42;;;;;;;21.63;16.63;;;;;;;12.27;89.03;100134.16;4982913;28;20213;-71
2022/04/22 12:26:15;;;;;;;21.63;16.90;;;;;;;12.42;89.01;100129.25;4975396;28;20227;-72
2022/04/22 12:28:59;;;;;;;20.43;15.87;;;;;;;12.39;85.33;100138.03;4986218;28;20208;-72
2022/04/22 12:31:27;;;;;;;19.97;15.03;;;;;;;12.42;84.64;100130.09;4986098;28;20211;-72
2022/04/22 12:33:59;;;;;;;21.93;16.90;;;;;;;12.44;86.66;100132.63;4984616;28;20229;-72
2022/04/22 12:36:26;;;;;;;20.13;16.77;;;;;;;12.53;85.99;100137.47;4985180;28;20226;-71
2022/04/22 12:38:52;;;;;;;23.00;17.43;;;;;;;12.49;85.48;100131.53;4992398;28;20223;-72